Mariq — SVA2152 — position and weather

sailwx.info

Track history (hours):
 
Tides and Currents Weather Stations Pressure Air Temp Water Temp Dewpoint Dewpoint Depression Visibility Wind Speed Wind Dir Waves Ship Positions

Mariq

Last reported at 2015-Mar-01 18:16 UTC. Time now 2015-Mar-29 17:22 UTC.
Position N 37°36' E 024°07'.
Warning: this ship's position is 27 days out of date.

Length 57 m.

Type: Tanker. MMSI: 239758424.

Date/timePositionNaut miles runAvg speedWind from/ knotsBaromVisibWave heightAir tempDewpointWater temp
2015-Mar-01 18:16N 37°36' E 024°07'34 9.1
2015-Mar-01 14:33N 37°23' E 024°47'9 9.5
2015-Mar-01 13:33N 37°21' E 024°58'9 9.5
2015-Mar-01 12:33N 37°20' E 025°10'1010.0
2015-Mar-01 11:33N 37°20' E 025°22'10 9.9
2015-Mar-01 10:33N 37°19' E 025°35'1110.3
2015-Mar-01 09:32N 37°18' E 025°48'15 0.4
2015-Feb-27 21:33N 37°03' E 025°49'9 9.1
2015-Feb-27 20:33N 37°08' E 025°41'10 8.8
2015-Feb-27 19:28N 37°13' E 025°30'9 9.4
2015-Feb-27 18:33N 37°14' E 025°20'9 9.0
2015-Feb-27 17:33N 37°16' E 025°08'9 8.8
2015-Feb-27 16:33N 37°19' E 024°58'9 8.9
2015-Feb-27 15:33N 37°22' E 024°48'  
2015-Feb-24 17:29N 37°24' E 024°44'1010.5
2015-Feb-24 16:33N 37°20' E 024°55'1010.4
2015-Feb-24 15:33N 37°18' E 025°08'1010.4
2015-Feb-24 14:33N 37°16' E 025°21'1110.4
2015-Feb-24 13:32N 37°13' E 025°34'17 2.1
2015-Feb-24 05:33N 37°02' E 025°50'9 8.5
2015-Feb-24 04:31N 36°55' E 025°56'2 0.1
2015-Feb-22 21:21N 36°54' E 025°59'6 7.5
2015-Feb-22 20:33N 36°58' E 025°52'8 8.1
2015-Feb-22 19:33N 37°04' E 025°46'8 7.8
2015-Feb-22 18:33N 37°09' E 025°39'8 7.9
2015-Feb-22 17:33N 37°13' E 025°30'9 9.4
2015-Feb-22 16:33N 37°14' E 025°18'8 8.4
2015-Feb-22 15:33N 37°17' E 025°09'8 8.1
2015-Feb-22 14:34N 37°19' E 024°59'8 8.2
2015-Feb-22 13:33N 37°22' E 024°50'5 0.3
2015-Feb-21 19:30N 37°24' E 024°44'1010.4
2015-Feb-21 18:33N 37°21' E 024°56'1010.4
2015-Feb-21 17:33N 37°20' E 025°09'1010.5
2015-Feb-21 16:33N 37°20' E 025°22'1110.5
2015-Feb-21 15:33N 37°19' E 025°35'10 9.9
2015-Feb-21 14:33N 37°18' E 025°47'12 9.9
2015-Feb-21 13:19N 37°18' E 026°03'910.1
2015-Feb-21 12:26N 37°17' E 026°14'  
Track history (hours):
 
Tides and Currents Weather Stations Pressure Air Temp Water Temp Dewpoint Dewpoint Depression Visibility Wind Speed Wind Dir Waves Ship Positions

Mariq

Last reported at 2015-Mar-01 18:16 UTC. Time now 2015-Mar-29 17:22 UTC.
Position N 37°36' E 024°07'.
Warning: this ship's position is 27 days out of date.

Length 57 m.

Type: Tanker. MMSI: 239758424.

Date/timePositionNaut miles runAvg speedWind from/ knotsBaromVisibWave heightAir tempDewpointWater temp
2015-Mar-01 18:16N 37°36' E 024°07'34 9.1
2015-Mar-01 14:33N 37°23' E 024°47'9 9.5
2015-Mar-01 13:33N 37°21' E 024°58'9 9.5
2015-Mar-01 12:33N 37°20' E 025°10'1010.0
2015-Mar-01 11:33N 37°20' E 025°22'10 9.9
2015-Mar-01 10:33N 37°19' E 025°35'1110.3
2015-Mar-01 09:32N 37°18' E 025°48'15 0.4
2015-Feb-27 21:33N 37°03' E 025°49'9 9.1
2015-Feb-27 20:33N 37°08' E 025°41'10 8.8
2015-Feb-27 19:28N 37°13' E 025°30'9 9.4
2015-Feb-27 18:33N 37°14' E 025°20'9 9.0
2015-Feb-27 17:33N 37°16' E 025°08'9 8.8
2015-Feb-27 16:33N 37°19' E 024°58'9 8.9
2015-Feb-27 15:33N 37°22' E 024°48'  
2015-Feb-24 17:29N 37°24' E 024°44'1010.5
2015-Feb-24 16:33N 37°20' E 024°55'1010.4
2015-Feb-24 15:33N 37°18' E 025°08'1010.4
2015-Feb-24 14:33N 37°16' E 025°21'1110.4
2015-Feb-24 13:32N 37°13' E 025°34'17 2.1
2015-Feb-24 05:33N 37°02' E 025°50'9 8.5
2015-Feb-24 04:31N 36°55' E 025°56'2 0.1
2015-Feb-22 21:21N 36°54' E 025°59'6 7.5
2015-Feb-22 20:33N 36°58' E 025°52'8 8.1
2015-Feb-22 19:33N 37°04' E 025°46'8 7.8
2015-Feb-22 18:33N 37°09' E 025°39'8 7.9
2015-Feb-22 17:33N 37°13' E 025°30'9 9.4
2015-Feb-22 16:33N 37°14' E 025°18'8 8.4
2015-Feb-22 15:33N 37°17' E 025°09'8 8.1
2015-Feb-22 14:34N 37°19' E 024°59'8 8.2
2015-Feb-22 13:33N 37°22' E 024°50'5 0.3
2015-Feb-21 19:30N 37°24' E 024°44'1010.4
2015-Feb-21 18:33N 37°21' E 024°56'1010.4
2015-Feb-21 17:33N 37°20' E 025°09'1010.5
2015-Feb-21 16:33N 37°20' E 025°22'1110.5
2015-Feb-21 15:33N 37°19' E 025°35'10 9.9
2015-Feb-21 14:33N 37°18' E 025°47'12 9.9
2015-Feb-21 13:19N 37°18' E 026°03'910.1
2015-Feb-21 12:26N 37°17' E 026°14'  

Dump ship's entire track history